Hovedside
METAR-TAF:

METAR-TAF

Lufthavner :

Simón Bolívar internasjonale lufthavn

Caracas, Venezuela

breddegrad: 10-36N, lengdegrad: 066-59W, høyde over havet: 43 m

Gjeldene værobservasjon

Denne rapporten ble laget for 1 time og 29 minutter siden, klokken 20:03 UTC
Vind 5 kt fra Nord
Temperatur 30°C
Luftfuktighet 66%
Trykk 1012 hPa

METAR: SVMI 252003Z AUTO 36005KT NCD 30/23 Q1012

Tid: 17:32 (21:32 UTC)

Varsel

Denne rapporten ble laget for 11 timer og 32 minutter siden, klokken 10:00 UTC
Varsel gyldig fra 25. klokken 12 UTC til 26. klokken 12 UTC
Vind kt fra Nord
Sikt 10 km eller mer
Spredte skyer i en høyde av 2000 ft
Blir
fra 25. klokken 14 UTC til 25. klokken 18 UTC
Vind 8 kt fra Øst
Spredte skyer i en høyde av 1600 ft
Midlertidig
fra 25. klokken 19 UTC til 26. klokken 23 UTC
Vind 10 kt fra Øst
Sikt: 9000 m
Brutte skyer i en høyde av 1600 ft
duskregn,

TAF: SVMI 251000Z 2512/2612 00000KT 9999 SCT020 TX34/2518Z TN25/2607Z BECMG 2514/2518 09008KT SCT016 TEMPO 2519/2623 09010KT 9000 DZ BKN016

Værobservasjoner og værvarsel for over 4000 flyplasser (METAR- og TAF-rapporter).

Tilgjengelige stasjoner er representert av de røde og gule prikkene på kartet.

Hold musepekeren over prikken for å se navnet på stasjonen.

Klikk så for å se værobservasjoner og -varsler.

For å forandre kartet kan du klikke på den grønne knappen med svart kryss for å zoome inn, på den grønne knappen med strek for å zoome ut, eller på de grønne pilene for å se tilstøtende kart.


METAR-TAF: